sensor_id;sensor_type;location;lat;lon;timestamp;P1;durP1;ratioP1;P2;durP2;ratioP2
12480;SDS011;6305;48.398;11.762;2023-06-22T00:01:22;13.60;;;8.80;;
12480;SDS011;6305;48.398;11.762;2023-06-22T00:03:50;15.75;;;8.68;;
12480;SDS011;6305;48.398;11.762;2023-06-22T00:06:17;16.17;;;9.07;;
12480;SDS011;6305;48.398;11.762;2023-06-22T00:08:44;13.48;;;8.63;;
12480;SDS011;6305;48.398;11.762;2023-06-22T00:11:11;15.80;;;8.82;;
12480;SDS011;6305;48.398;11.762;2023-06-22T00:13:38;14.68;;;8.77;;
12480;SDS011;6305;48.398;11.762;2023-06-22T00:16:07;13.25;;;8.77;;
12480;SDS011;6305;48.398;11.762;2023-06-22T00:18:34;15.20;;;9.05;;
12480;SDS011;6305;48.398;11.762;2023-06-22T00:21:00;13.93;;;9.27;;
12480;SDS011;6305;48.398;11.762;2023-06-22T00:23:27;14.55;;;9.00;;
12480;SDS011;6305;48.398;11.762;2023-06-22T00:25:59;13.25;;;8.45;;
12480;SDS011;6305;48.398;11.762;2023-06-22T00:28:26;15.32;;;8.77;;
12480;SDS011;6305;48.398;11.762;2023-06-22T00:30:54;16.70;;;8.80;;
12480;SDS011;6305;48.398;11.762;2023-06-22T00:33:22;15.20;;;8.32;;
12480;SDS011;6305;48.398;11.762;2023-06-22T00:35:49;12.15;;;8.57;;
12480;SDS011;6305;48.398;11.762;2023-06-22T00:38:18;15.48;;;8.70;;
12480;SDS011;6305;48.398;11.762;2023-06-22T00:40:45;15.32;;;8.05;;
12480;SDS011;6305;48.398;11.762;2023-06-22T00:43:13;15.88;;;8.30;;
12480;SDS011;6305;48.398;11.762;2023-06-22T00:45:40;15.57;;;8.18;;
12480;SDS011;6305;48.398;11.762;2023-06-22T00:48:08;14.68;;;8.15;;
12480;SDS011;6305;48.398;11.762;2023-06-22T00:50:37;12.95;;;7.63;;
12480;SDS011;6305;48.398;11.762;2023-06-22T00:53:06;17.08;;;8.45;;
12480;SDS011;6305;48.398;11.762;2023-06-22T00:55:34;17.05;;;8.52;;
12480;SDS011;6305;48.398;11.762;2023-06-22T00:58:04;15.23;;;8.18;;
12480;SDS011;6305;48.398;11.762;2023-06-22T01:00:35;12.18;;;7.85;;
12480;SDS011;6305;48.398;11.762;2023-06-22T01:03:03;13.85;;;7.75;;
12480;SDS011;6305;48.398;11.762;2023-06-22T01:05:34;15.30;;;7.72;;
12480;SDS011;6305;48.398;11.762;2023-06-22T01:08:08;12.52;;;7.65;;
12480;SDS011;6305;48.398;11.762;2023-06-22T01:10:43;14.30;;;7.95;;
12480;SDS011;6305;48.398;11.762;2023-06-22T01:13:16;11.93;;;7.35;;
12480;SDS011;6305;48.398;11.762;2023-06-22T01:15:51;15.07;;;7.22;;
12480;SDS011;6305;48.398;11.762;2023-06-22T01:18:23;13.25;;;7.50;;
12480;SDS011;6305;48.398;11.762;2023-06-22T01:20:52;14.00;;;7.57;;
12480;SDS011;6305;48.398;11.762;2023-06-22T01:23:26;14.88;;;7.97;;
12480;SDS011;6305;48.398;11.762;2023-06-22T01:26:01;11.18;;;7.45;;
12480;SDS011;6305;48.398;11.762;2023-06-22T01:28:42;11.52;;;6.93;;
12480;SDS011;6305;48.398;11.762;2023-06-22T01:31:12;13.15;;;7.40;;
12480;SDS011;6305;48.398;11.762;2023-06-22T01:33:43;13.10;;;7.80;;
12480;SDS011;6305;48.398;11.762;2023-06-22T01:36:17;12.27;;;7.63;;
12480;SDS011;6305;48.398;11.762;2023-06-22T01:38:45;13.82;;;7.75;;
12480;SDS011;6305;48.398;11.762;2023-06-22T01:41:13;12.65;;;8.40;;
12480;SDS011;6305;48.398;11.762;2023-06-22T01:43:42;13.18;;;7.95;;
12480;SDS011;6305;48.398;11.762;2023-06-22T01:46:10;12.93;;;7.35;;
12480;SDS011;6305;48.398;11.762;2023-06-22T01:48:38;12.95;;;7.75;;
12480;SDS011;6305;48.398;11.762;2023-06-22T01:51:06;16.15;;;8.40;;
12480;SDS011;6305;48.398;11.762;2023-06-22T01:53:33;15.60;;;8.60;;
12480;SDS011;6305;48.398;11.762;2023-06-22T01:56:00;13.90;;;8.07;;
12480;SDS011;6305;48.398;11.762;2023-06-22T01:58:29;14.60;;;8.18;;
12480;SDS011;6305;48.398;11.762;2023-06-22T02:01:00;14.35;;;8.95;;
12480;SDS011;6305;48.398;11.762;2023-06-22T02:03:34;17.08;;;8.23;;
12480;SDS011;6305;48.398;11.762;2023-06-22T02:06:05;14.07;;;8.25;;
12480;SDS011;6305;48.398;11.762;2023-06-22T02:08:40;13.52;;;8.48;;
12480;SDS011;6305;48.398;11.762;2023-06-22T02:11:11;15.27;;;8.23;;
12480;SDS011;6305;48.398;11.762;2023-06-22T02:13:41;18.02;;;8.52;;
12480;SDS011;6305;48.398;11.762;2023-06-22T02:16:11;14.48;;;8.50;;
12480;SDS011;6305;48.398;11.762;2023-06-22T02:18:45;15.15;;;9.05;;
12480;SDS011;6305;48.398;11.762;2023-06-22T02:21:12;14.90;;;8.82;;
12480;SDS011;6305;48.398;11.762;2023-06-22T02:23:41;15.65;;;9.13;;
12480;SDS011;6305;48.398;11.762;2023-06-22T02:26:07;19.45;;;9.48;;
12480;SDS011;6305;48.398;11.762;2023-06-22T02:28:35;16.65;;;9.32;;
12480;SDS011;6305;48.398;11.762;2023-06-22T02:31:01;17.42;;;9.98;;
12480;SDS011;6305;48.398;11.762;2023-06-22T02:33:30;16.85;;;9.18;;
12480;SDS011;6305;48.398;11.762;2023-06-22T02:35:57;16.88;;;9.52;;
12480;SDS011;6305;48.398;11.762;2023-06-22T02:38:24;14.73;;;9.20;;
12480;SDS011;6305;48.398;11.762;2023-06-22T02:40:51;16.38;;;9.43;;
12480;SDS011;6305;48.398;11.762;2023-06-22T02:43:18;16.70;;;10.18;;
12480;SDS011;6305;48.398;11.762;2023-06-22T02:45:45;18.77;;;9.82;;
12480;SDS011;6305;48.398;11.762;2023-06-22T02:48:13;17.95;;;9.75;;
12480;SDS011;6305;48.398;11.762;2023-06-22T02:50:42;19.55;;;10.50;;
12480;SDS011;6305;48.398;11.762;2023-06-22T02:53:09;18.80;;;10.73;;
12480;SDS011;6305;48.398;11.762;2023-06-22T02:55:39;16.40;;;10.20;;
12480;SDS011;6305;48.398;11.762;2023-06-22T02:58:06;18.92;;;10.80;;
12480;SDS011;6305;48.398;11.762;2023-06-22T03:00:36;15.15;;;10.90;;
12480;SDS011;6305;48.398;11.762;2023-06-22T03:03:04;22.58;;;11.30;;
12480;SDS011;6305;48.398;11.762;2023-06-22T03:05:32;19.20;;;10.27;;
12480;SDS011;6305;48.398;11.762;2023-06-22T03:08:02;20.63;;;10.43;;
12480;SDS011;6305;48.398;11.762;2023-06-22T03:10:32;19.80;;;11.60;;
12480;SDS011;6305;48.398;11.762;2023-06-22T03:12:59;17.25;;;11.00;;
12480;SDS011;6305;48.398;11.762;2023-06-22T03:15:26;18.38;;;11.13;;
12480;SDS011;6305;48.398;11.762;2023-06-22T03:17:55;20.65;;;11.20;;
12480;SDS011;6305;48.398;11.762;2023-06-22T03:20:22;20.33;;;10.57;;
12480;SDS011;6305;48.398;11.762;2023-06-22T03:22:52;19.83;;;11.38;;
12480;SDS011;6305;48.398;11.762;2023-06-22T03:25:20;21.77;;;12.10;;
12480;SDS011;6305;48.398;11.762;2023-06-22T03:27:48;20.00;;;11.85;;
12480;SDS011;6305;48.398;11.762;2023-06-22T03:30:15;25.58;;;12.40;;
12480;SDS011;6305;48.398;11.762;2023-06-22T03:32:44;20.10;;;12.07;;
12480;SDS011;6305;48.398;11.762;2023-06-22T03:35:12;21.38;;;12.82;;
12480;SDS011;6305;48.398;11.762;2023-06-22T03:37:39;22.60;;;12.88;;
12480;SDS011;6305;48.398;11.762;2023-06-22T03:40:07;23.90;;;13.10;;
12480;SDS011;6305;48.398;11.762;2023-06-22T03:42:36;23.10;;;13.07;;
12480;SDS011;6305;48.398;11.762;2023-06-22T03:45:04;27.50;;;14.68;;
12480;SDS011;6305;48.398;11.762;2023-06-22T03:47:32;24.13;;;13.20;;
12480;SDS011;6305;48.398;11.762;2023-06-22T03:49:59;23.83;;;13.48;;
12480;SDS011;6305;48.398;11.762;2023-06-22T03:52:29;25.83;;;13.70;;
12480;SDS011;6305;48.398;11.762;2023-06-22T03:54:56;23.15;;;12.57;;
12480;SDS011;6305;48.398;11.762;2023-06-22T03:57:23;20.63;;;12.95;;
12480;SDS011;6305;48.398;11.762;2023-06-22T03:59:53;21.83;;;12.75;;
12480;SDS011;6305;48.398;11.762;2023-06-22T04:02:23;21.13;;;12.00;;
12480;SDS011;6305;48.398;11.762;2023-06-22T04:04:50;20.98;;;12.45;;
12480;SDS011;6305;48.398;11.762;2023-06-22T04:07:17;21.02;;;12.40;;
12480;SDS011;6305;48.398;11.762;2023-06-22T04:09:44;19.20;;;11.23;;
12480;SDS011;6305;48.398;11.762;2023-06-22T04:12:11;23.00;;;11.32;;
12480;SDS011;6305;48.398;11.762;2023-06-22T04:14:38;17.83;;;10.52;;
12480;SDS011;6305;48.398;11.762;2023-06-22T04:17:06;16.70;;;10.43;;
12480;SDS011;6305;48.398;11.762;2023-06-22T04:19:33;19.15;;;10.80;;
12480;SDS011;6305;48.398;11.762;2023-06-22T04:22:00;15.57;;;8.68;;
12480;SDS011;6305;48.398;11.762;2023-06-22T04:24:27;17.02;;;9.45;;
12480;SDS011;6305;48.398;11.762;2023-06-22T04:26:54;16.15;;;8.50;;
12480;SDS011;6305;48.398;11.762;2023-06-22T04:29:21;15.90;;;8.15;;
12480;SDS011;6305;48.398;11.762;2023-06-22T04:31:54;14.93;;;8.57;;
12480;SDS011;6305;48.398;11.762;2023-06-22T04:34:24;14.57;;;8.27;;
12480;SDS011;6305;48.398;11.762;2023-06-22T04:36:52;17.38;;;8.35;;
12480;SDS011;6305;48.398;11.762;2023-06-22T04:39:20;12.57;;;7.70;;
12480;SDS011;6305;48.398;11.762;2023-06-22T04:41:47;11.65;;;7.93;;
12480;SDS011;6305;48.398;11.762;2023-06-22T04:44:14;11.93;;;7.85;;
12480;SDS011;6305;48.398;11.762;2023-06-22T04:46:50;13.00;;;7.32;;
12480;SDS011;6305;48.398;11.762;2023-06-22T04:49:19;15.70;;;7.57;;
12480;SDS011;6305;48.398;11.762;2023-06-22T04:51:48;14.15;;;7.75;;
12480;SDS011;6305;48.398;11.762;2023-06-22T04:54:17;14.15;;;7.38;;
12480;SDS011;6305;48.398;11.762;2023-06-22T04:56:44;10.38;;;7.10;;
12480;SDS011;6305;48.398;11.762;2023-06-22T04:59:11;11.32;;;6.70;;
12480;SDS011;6305;48.398;11.762;2023-06-22T05:01:39;10.60;;;7.60;;
12480;SDS011;6305;48.398;11.762;2023-06-22T05:04:06;9.25;;;6.45;;
12480;SDS011;6305;48.398;11.762;2023-06-22T05:06:33;12.02;;;6.80;;
12480;SDS011;6305;48.398;11.762;2023-06-22T05:09:01;14.48;;;7.85;;
12480;SDS011;6305;48.398;11.762;2023-06-22T05:11:30;9.77;;;6.85;;
12480;SDS011;6305;48.398;11.762;2023-06-22T05:13:57;11.10;;;6.72;;
12480;SDS011;6305;48.398;11.762;2023-06-22T05:16:24;10.23;;;6.25;;
12480;SDS011;6305;48.398;11.762;2023-06-22T05:18:51;10.45;;;6.90;;
12480;SDS011;6305;48.398;11.762;2023-06-22T05:21:22;10.43;;;6.10;;
12480;SDS011;6305;48.398;11.762;2023-06-22T05:23:50;15.05;;;6.07;;
12480;SDS011;6305;48.398;11.762;2023-06-22T05:26:19;10.40;;;6.20;;
12480;SDS011;6305;48.398;11.762;2023-06-22T05:28:47;10.48;;;6.60;;
12480;SDS011;6305;48.398;11.762;2023-06-22T05:31:15;10.40;;;5.82;;
12480;SDS011;6305;48.398;11.762;2023-06-22T05:33:45;10.43;;;6.25;;
12480;SDS011;6305;48.398;11.762;2023-06-22T05:36:13;10.45;;;5.80;;
12480;SDS011;6305;48.398;11.762;2023-06-22T05:38:40;8.50;;;5.38;;
12480;SDS011;6305;48.398;11.762;2023-06-22T05:41:08;7.97;;;5.32;;
12480;SDS011;6305;48.398;11.762;2023-06-22T05:43:36;10.65;;;5.78;;
12480;SDS011;6305;48.398;11.762;2023-06-22T05:46:03;9.73;;;5.82;;
12480;SDS011;6305;48.398;11.762;2023-06-22T05:48:30;8.63;;;5.28;;
12480;SDS011;6305;48.398;11.762;2023-06-22T05:50:58;8.70;;;5.53;;
12480;SDS011;6305;48.398;11.762;2023-06-22T05:53:25;9.43;;;5.65;;
12480;SDS011;6305;48.398;11.762;2023-06-22T05:55:52;12.00;;;5.57;;
12480;SDS011;6305;48.398;11.762;2023-06-22T05:58:19;7.13;;;4.97;;
12480;SDS011;6305;48.398;11.762;2023-06-22T06:00:48;9.30;;;5.95;;
12480;SDS011;6305;48.398;11.762;2023-06-22T06:03:15;6.85;;;5.18;;
12480;SDS011;6305;48.398;11.762;2023-06-22T06:05:43;8.02;;;4.15;;
12480;SDS011;6305;48.398;11.762;2023-06-22T06:08:10;8.45;;;5.22;;
12480;SDS011;6305;48.398;11.762;2023-06-22T06:10:37;10.30;;;4.93;;
12480;SDS011;6305;48.398;11.762;2023-06-22T06:13:05;9.05;;;5.40;;
12480;SDS011;6305;48.398;11.762;2023-06-22T06:15:32;9.07;;;5.50;;
12480;SDS011;6305;48.398;11.762;2023-06-22T06:18:01;7.65;;;4.38;;
12480;SDS011;6305;48.398;11.762;2023-06-22T06:20:30;9.57;;;4.55;;
12480;SDS011;6305;48.398;11.762;2023-06-22T06:22:57;6.63;;;4.43;;
12480;SDS011;6305;48.398;11.762;2023-06-22T06:25:24;8.20;;;4.35;;
12480;SDS011;6305;48.398;11.762;2023-06-22T06:27:51;4.97;;;3.63;;
12480;SDS011;6305;48.398;11.762;2023-06-22T06:30:19;6.00;;;3.65;;
12480;SDS011;6305;48.398;11.762;2023-06-22T06:32:46;5.28;;;3.70;;
12480;SDS011;6305;48.398;11.762;2023-06-22T06:35:15;5.57;;;3.30;;
12480;SDS011;6305;48.398;11.762;2023-06-22T06:37:42;6.95;;;4.13;;
12480;SDS011;6305;48.398;11.762;2023-06-22T06:40:11;6.55;;;3.60;;
12480;SDS011;6305;48.398;11.762;2023-06-22T06:42:39;7.82;;;4.20;;
12480;SDS011;6305;48.398;11.762;2023-06-22T06:45:10;7.07;;;3.95;;
12480;SDS011;6305;48.398;11.762;2023-06-22T06:47:37;6.97;;;3.70;;
12480;SDS011;6305;48.398;11.762;2023-06-22T06:50:05;6.10;;;3.53;;
12480;SDS011;6305;48.398;11.762;2023-06-22T06:52:34;6.10;;;3.50;;
12480;SDS011;6305;48.398;11.762;2023-06-22T06:55:02;6.18;;;3.92;;
12480;SDS011;6305;48.398;11.762;2023-06-22T06:57:33;6.75;;;3.92;;
12480;SDS011;6305;48.398;11.762;2023-06-22T07:00:02;6.85;;;3.60;;
12480;SDS011;6305;48.398;11.762;2023-06-22T07:02:34;6.40;;;3.60;;
12480;SDS011;6305;48.398;11.762;2023-06-22T07:05:01;8.48;;;3.60;;
12480;SDS011;6305;48.398;11.762;2023-06-22T07:07:29;5.65;;;3.67;;
12480;SDS011;6305;48.398;11.762;2023-06-22T07:09:57;6.15;;;3.40;;
12480;SDS011;6305;48.398;11.762;2023-06-22T07:12:24;4.97;;;3.35;;
12480;SDS011;6305;48.398;11.762;2023-06-22T07:14:52;6.93;;;3.42;;
12480;SDS011;6305;48.398;11.762;2023-06-22T07:17:19;6.75;;;3.80;;
12480;SDS011;6305;48.398;11.762;2023-06-22T07:19:46;5.82;;;3.20;;
12480;SDS011;6305;48.398;11.762;2023-06-22T07:22:13;7.40;;;3.83;;
12480;SDS011;6305;48.398;11.762;2023-06-22T07:24:41;5.65;;;3.50;;
12480;SDS011;6305;48.398;11.762;2023-06-22T07:27:10;5.40;;;3.35;;
12480;SDS011;6305;48.398;11.762;2023-06-22T07:29:37;8.43;;;3.10;;
12480;SDS011;6305;48.398;11.762;2023-06-22T07:32:06;5.85;;;3.20;;
12480;SDS011;6305;48.398;11.762;2023-06-22T07:34:34;5.75;;;3.15;;
12480;SDS011;6305;48.398;11.762;2023-06-22T07:37:01;6.47;;;3.28;;
12480;SDS011;6305;48.398;11.762;2023-06-22T07:39:28;7.45;;;3.33;;
12480;SDS011;6305;48.398;11.762;2023-06-22T07:41:55;5.45;;;3.20;;
12480;SDS011;6305;48.398;11.762;2023-06-22T07:44:24;7.85;;;3.20;;
12480;SDS011;6305;48.398;11.762;2023-06-22T07:46:50;5.32;;;2.90;;
12480;SDS011;6305;48.398;11.762;2023-06-22T07:49:17;8.35;;;3.50;;
12480;SDS011;6305;48.398;11.762;2023-06-22T07:51:44;6.15;;;3.33;;
12480;SDS011;6305;48.398;11.762;2023-06-22T07:54:11;4.32;;;2.90;;
12480;SDS011;6305;48.398;11.762;2023-06-22T07:56:40;5.20;;;3.22;;
12480;SDS011;6305;48.398;11.762;2023-06-22T07:59:08;7.47;;;3.28;;
12480;SDS011;6305;48.398;11.762;2023-06-22T08:01:36;7.60;;;3.30;;
12480;SDS011;6305;48.398;11.762;2023-06-22T08:04:03;8.10;;;3.40;;
12480;SDS011;6305;48.398;11.762;2023-06-22T08:06:31;7.18;;;3.08;;
12480;SDS011;6305;48.398;11.762;2023-06-22T08:08:57;5.10;;;3.30;;
12480;SDS011;6305;48.398;11.762;2023-06-22T08:11:24;7.32;;;3.60;;
12480;SDS011;6305;48.398;11.762;2023-06-22T08:13:51;6.68;;;3.33;;
12480;SDS011;6305;48.398;11.762;2023-06-22T08:16:21;5.18;;;3.05;;
12480;SDS011;6305;48.398;11.762;2023-06-22T08:18:49;5.78;;;3.15;;
12480;SDS011;6305;48.398;11.762;2023-06-22T08:21:16;8.02;;;3.92;;
12480;SDS011;6305;48.398;11.762;2023-06-22T08:23:43;8.63;;;3.40;;
12480;SDS011;6305;48.398;11.762;2023-06-22T08:26:10;7.55;;;3.33;;
12480;SDS011;6305;48.398;11.762;2023-06-22T08:28:37;6.00;;;3.63;;
12480;SDS011;6305;48.398;11.762;2023-06-22T08:31:04;6.05;;;3.47;;
12480;SDS011;6305;48.398;11.762;2023-06-22T08:33:31;5.03;;;3.03;;
12480;SDS011;6305;48.398;11.762;2023-06-22T08:35:59;6.72;;;3.35;;
12480;SDS011;6305;48.398;11.762;2023-06-22T08:38:26;6.25;;;3.47;;
12480;SDS011;6305;48.398;11.762;2023-06-22T08:40:53;5.13;;;3.42;;
12480;SDS011;6305;48.398;11.762;2023-06-22T08:43:21;9.07;;;3.30;;
12480;SDS011;6305;48.398;11.762;2023-06-22T08:45:48;5.18;;;2.97;;
12480;SDS011;6305;48.398;11.762;2023-06-22T08:48:15;6.00;;;3.60;;
12480;SDS011;6305;48.398;11.762;2023-06-22T08:50:42;5.45;;;3.30;;
12480;SDS011;6305;48.398;11.762;2023-06-22T08:53:11;6.15;;;3.35;;
12480;SDS011;6305;48.398;11.762;2023-06-22T08:55:38;7.72;;;3.40;;
12480;SDS011;6305;48.398;11.762;2023-06-22T08:58:05;8.30;;;4.20;;
12480;SDS011;6305;48.398;11.762;2023-06-22T09:00:32;6.43;;;3.30;;
12480;SDS011;6305;48.398;11.762;2023-06-22T09:03:00;7.75;;;3.20;;
12480;SDS011;6305;48.398;11.762;2023-06-22T09:05:27;9.80;;;3.65;;
12480;SDS011;6305;48.398;11.762;2023-06-22T09:07:55;7.28;;;3.78;;
12480;SDS011;6305;48.398;11.762;2023-06-22T09:10:25;8.73;;;3.83;;
12480;SDS011;6305;48.398;11.762;2023-06-22T09:12:52;5.93;;;3.55;;
12480;SDS011;6305;48.398;11.762;2023-06-22T09:15:19;6.57;;;3.60;;
12480;SDS011;6305;48.398;11.762;2023-06-22T09:17:45;9.05;;;4.13;;
12480;SDS011;6305;48.398;11.762;2023-06-22T09:20:12;10.95;;;4.10;;
12480;SDS011;6305;48.398;11.762;2023-06-22T09:22:39;8.75;;;4.40;;
12480;SDS011;6305;48.398;11.762;2023-06-22T09:25:07;8.73;;;3.97;;
12480;SDS011;6305;48.398;11.762;2023-06-22T09:27:35;10.55;;;4.30;;
12480;SDS011;6305;48.398;11.762;2023-06-22T09:30:02;7.18;;;3.58;;
12480;SDS011;6305;48.398;11.762;2023-06-22T09:32:31;9.48;;;4.10;;
12480;SDS011;6305;48.398;11.762;2023-06-22T09:34:58;7.63;;;3.80;;
12480;SDS011;6305;48.398;11.762;2023-06-22T09:37:25;8.40;;;4.00;;
12480;SDS011;6305;48.398;11.762;2023-06-22T09:39:51;7.85;;;4.05;;
12480;SDS011;6305;48.398;11.762;2023-06-22T09:42:18;9.30;;;4.07;;
12480;SDS011;6305;48.398;11.762;2023-06-22T09:44:47;6.72;;;3.65;;
12480;SDS011;6305;48.398;11.762;2023-06-22T09:47:14;9.40;;;4.38;;
12480;SDS011;6305;48.398;11.762;2023-06-22T09:49:41;6.93;;;3.85;;
12480;SDS011;6305;48.398;11.762;2023-06-22T09:52:08;6.40;;;4.03;;
12480;SDS011;6305;48.398;11.762;2023-06-22T09:54:36;8.55;;;3.80;;
12480;SDS011;6305;48.398;11.762;2023-06-22T09:57:03;7.35;;;4.07;;
12480;SDS011;6305;48.398;11.762;2023-06-22T09:59:30;8.73;;;4.18;;
12480;SDS011;6305;48.398;11.762;2023-06-22T10:01:59;8.70;;;4.05;;
12480;SDS011;6305;48.398;11.762;2023-06-22T10:04:26;12.63;;;4.20;;
12480;SDS011;6305;48.398;11.762;2023-06-22T10:06:53;9.05;;;3.83;;
12480;SDS011;6305;48.398;11.762;2023-06-22T10:09:19;9.60;;;4.20;;
12480;SDS011;6305;48.398;11.762;2023-06-22T10:11:46;8.82;;;4.13;;
12480;SDS011;6305;48.398;11.762;2023-06-22T10:14:13;9.73;;;4.15;;
12480;SDS011;6305;48.398;11.762;2023-06-22T10:16:40;9.65;;;4.20;;
12480;SDS011;6305;48.398;11.762;2023-06-22T10:19:09;8.13;;;3.97;;
12480;SDS011;6305;48.398;11.762;2023-06-22T10:21:36;8.05;;;4.05;;
12480;SDS011;6305;48.398;11.762;2023-06-22T10:24:03;7.57;;;4.10;;
12480;SDS011;6305;48.398;11.762;2023-06-22T10:26:32;7.13;;;3.90;;
12480;SDS011;6305;48.398;11.762;2023-06-22T10:28:59;7.72;;;3.55;;
12480;SDS011;6305;48.398;11.762;2023-06-22T10:31:26;6.50;;;3.70;;
12480;SDS011;6305;48.398;11.762;2023-06-22T10:33:53;9.18;;;4.05;;
12480;SDS011;6305;48.398;11.762;2023-06-22T10:36:22;8.82;;;4.57;;
12480;SDS011;6305;48.398;11.762;2023-06-22T10:38:49;5.97;;;3.75;;
12480;SDS011;6305;48.398;11.762;2023-06-22T10:41:19;6.47;;;3.70;;
12480;SDS011;6305;48.398;11.762;2023-06-22T10:43:46;8.82;;;4.50;;
12480;SDS011;6305;48.398;11.762;2023-06-22T10:46:12;11.98;;;4.22;;
12480;SDS011;6305;48.398;11.762;2023-06-22T10:48:39;9.95;;;3.95;;
12480;SDS011;6305;48.398;11.762;2023-06-22T10:51:06;11.75;;;4.25;;
12480;SDS011;6305;48.398;11.762;2023-06-22T10:53:35;7.25;;;3.85;;
12480;SDS011;6305;48.398;11.762;2023-06-22T10:56:02;11.40;;;4.15;;
12480;SDS011;6305;48.398;11.762;2023-06-22T10:58:29;6.68;;;4.13;;
12480;SDS011;6305;48.398;11.762;2023-06-22T11:00:56;9.55;;;4.30;;
12480;SDS011;6305;48.398;11.762;2023-06-22T11:03:24;8.90;;;4.35;;
12480;SDS011;6305;48.398;11.762;2023-06-22T11:05:51;7.47;;;4.15;;
12480;SDS011;6305;48.398;11.762;2023-06-22T11:08:18;8.95;;;4.38;;
12480;SDS011;6305;48.398;11.762;2023-06-22T11:10:46;8.88;;;4.07;;
12480;SDS011;6305;48.398;11.762;2023-06-22T11:13:13;9.18;;;4.40;;
12480;SDS011;6305;48.398;11.762;2023-06-22T11:15:40;8.23;;;4.40;;
12480;SDS011;6305;48.398;11.762;2023-06-22T11:18:07;8.57;;;4.25;;
12480;SDS011;6305;48.398;11.762;2023-06-22T11:20:34;8.18;;;4.47;;
12480;SDS011;6305;48.398;11.762;2023-06-22T11:23:04;11.63;;;4.30;;
12480;SDS011;6305;48.398;11.762;2023-06-22T11:25:31;10.68;;;4.13;;
12480;SDS011;6305;48.398;11.762;2023-06-22T11:28:01;8.43;;;3.90;;
12480;SDS011;6305;48.398;11.762;2023-06-22T11:30:29;11.80;;;4.40;;
12480;SDS011;6305;48.398;11.762;2023-06-22T11:32:56;10.68;;;4.20;;
12480;SDS011;6305;48.398;11.762;2023-06-22T11:35:24;9.95;;;4.25;;
12480;SDS011;6305;48.398;11.762;2023-06-22T11:37:51;8.48;;;4.55;;
12480;SDS011;6305;48.398;11.762;2023-06-22T11:40:18;10.57;;;4.70;;
12480;SDS011;6305;48.398;11.762;2023-06-22T11:42:45;10.60;;;4.70;;
12480;SDS011;6305;48.398;11.762;2023-06-22T11:45:13;8.13;;;4.40;;
12480;SDS011;6305;48.398;11.762;2023-06-22T11:47:41;9.98;;;4.40;;
12480;SDS011;6305;48.398;11.762;2023-06-22T11:50:08;9.25;;;4.45;;
12480;SDS011;6305;48.398;11.762;2023-06-22T11:52:36;10.00;;;4.70;;
12480;SDS011;6305;48.398;11.762;2023-06-22T11:55:03;10.05;;;4.40;;
12480;SDS011;6305;48.398;11.762;2023-06-22T11:57:32;8.13;;;3.85;;
12480;SDS011;6305;48.398;11.762;2023-06-22T12:00:00;9.63;;;4.25;;
12480;SDS011;6305;48.398;11.762;2023-06-22T12:02:33;9.60;;;4.55;;
12480;SDS011;6305;48.398;11.762;2023-06-22T12:05:00;9.50;;;4.63;;
12480;SDS011;6305;48.398;11.762;2023-06-22T12:07:29;7.20;;;4.10;;
12480;SDS011;6305;48.398;11.762;2023-06-22T12:09:56;7.18;;;3.90;;
12480;SDS011;6305;48.398;11.762;2023-06-22T12:12:24;9.90;;;4.38;;
12480;SDS011;6305;48.398;11.762;2023-06-22T12:14:51;10.50;;;4.32;;
12480;SDS011;6305;48.398;11.762;2023-06-22T12:17:18;8.88;;;4.30;;
12480;SDS011;6305;48.398;11.762;2023-06-22T12:19:46;9.35;;;4.15;;
12480;SDS011;6305;48.398;11.762;2023-06-22T12:22:15;10.07;;;4.53;;
12480;SDS011;6305;48.398;11.762;2023-06-22T12:24:42;8.48;;;4.22;;
12480;SDS011;6305;48.398;11.762;2023-06-22T12:27:09;8.32;;;4.47;;
12480;SDS011;6305;48.398;11.762;2023-06-22T12:29:36;9.70;;;4.63;;
12480;SDS011;6305;48.398;11.762;2023-06-22T12:32:03;8.02;;;4.40;;
12480;SDS011;6305;48.398;11.762;2023-06-22T12:34:31;9.13;;;4.57;;
12480;SDS011;6305;48.398;11.762;2023-06-22T12:36:59;11.18;;;4.75;;
12480;SDS011;6305;48.398;11.762;2023-06-22T12:39:27;10.95;;;4.90;;
12480;SDS011;6305;48.398;11.762;2023-06-22T12:41:54;9.65;;;4.00;;
12480;SDS011;6305;48.398;11.762;2023-06-22T12:44:21;14.02;;;4.30;;
12480;SDS011;6305;48.398;11.762;2023-06-22T12:46:48;8.02;;;4.35;;
12480;SDS011;6305;48.398;11.762;2023-06-22T12:49:15;9.27;;;4.18;;
12480;SDS011;6305;48.398;11.762;2023-06-22T12:51:43;8.60;;;4.32;;
12480;SDS011;6305;48.398;11.762;2023-06-22T12:54:11;9.63;;;4.45;;
12480;SDS011;6305;48.398;11.762;2023-06-22T12:56:38;8.00;;;4.50;;
12480;SDS011;6305;48.398;11.762;2023-06-22T12:59:05;10.05;;;4.85;;
12480;SDS011;6305;48.398;11.762;2023-06-22T13:01:32;11.68;;;4.40;;
12480;SDS011;6305;48.398;11.762;2023-06-22T13:03:59;10.02;;;4.32;;
12480;SDS011;6305;48.398;11.762;2023-06-22T13:06:26;9.13;;;4.43;;
12480;SDS011;6305;48.398;11.762;2023-06-22T13:08:53;8.90;;;4.15;;
12480;SDS011;6305;48.398;11.762;2023-06-22T13:11:22;10.68;;;4.25;;
12480;SDS011;6305;48.398;11.762;2023-06-22T13:13:48;8.40;;;4.57;;
12480;SDS011;6305;48.398;11.762;2023-06-22T13:16:15;9.88;;;4.50;;
12480;SDS011;6305;48.398;11.762;2023-06-22T13:18:43;9.48;;;4.40;;
12480;SDS011;6305;48.398;11.762;2023-06-22T13:21:09;10.07;;;4.70;;
12480;SDS011;6305;48.398;11.762;2023-06-22T13:23:36;12.23;;;4.60;;
12480;SDS011;6305;48.398;11.762;2023-06-22T13:26:03;10.95;;;4.80;;
12480;SDS011;6305;48.398;11.762;2023-06-22T13:28:32;9.13;;;4.43;;
12480;SDS011;6305;48.398;11.762;2023-06-22T13:30:59;7.40;;;4.35;;
12480;SDS011;6305;48.398;11.762;2023-06-22T13:33:27;9.55;;;4.72;;
12480;SDS011;6305;48.398;11.762;2023-06-22T13:35:54;10.13;;;4.78;;
12480;SDS011;6305;48.398;11.762;2023-06-22T13:38:20;10.25;;;4.28;;
12480;SDS011;6305;48.398;11.762;2023-06-22T13:40:48;11.70;;;4.68;;
12480;SDS011;6305;48.398;11.762;2023-06-22T13:43:16;9.00;;;4.15;;
12480;SDS011;6305;48.398;11.762;2023-06-22T13:45:44;11.95;;;4.70;;
12480;SDS011;6305;48.398;11.762;2023-06-22T13:48:11;11.55;;;4.25;;
12480;SDS011;6305;48.398;11.762;2023-06-22T13:50:38;9.40;;;4.50;;
12480;SDS011;6305;48.398;11.762;2023-06-22T13:53:05;10.90;;;4.38;;
12480;SDS011;6305;48.398;11.762;2023-06-22T13:55:32;9.70;;;4.20;;
12480;SDS011;6305;48.398;11.762;2023-06-22T13:57:59;11.80;;;4.55;;
12480;SDS011;6305;48.398;11.762;2023-06-22T14:00:26;14.52;;;4.57;;
12480;SDS011;6305;48.398;11.762;2023-06-22T14:02:55;11.38;;;4.55;;
12480;SDS011;6305;48.398;11.762;2023-06-22T14:05:22;9.07;;;4.28;;
12480;SDS011;6305;48.398;11.762;2023-06-22T14:07:49;10.23;;;4.45;;
12480;SDS011;6305;48.398;11.762;2023-06-22T14:10:16;12.60;;;4.57;;
12480;SDS011;6305;48.398;11.762;2023-06-22T14:12:43;8.55;;;4.55;;
12480;SDS011;6305;48.398;11.762;2023-06-22T14:15:11;10.45;;;4.75;;
12480;SDS011;6305;48.398;11.762;2023-06-22T14:17:38;10.65;;;4.60;;
12480;SDS011;6305;48.398;11.762;2023-06-22T14:20:07;9.93;;;4.43;;
12480;SDS011;6305;48.398;11.762;2023-06-22T14:22:34;15.18;;;4.95;;
12480;SDS011;6305;48.398;11.762;2023-06-22T14:25:01;12.05;;;4.40;;
12480;SDS011;6305;48.398;11.762;2023-06-22T14:27:29;9.40;;;5.00;;
12480;SDS011;6305;48.398;11.762;2023-06-22T14:29:56;13.32;;;5.15;;
12480;SDS011;6305;48.398;11.762;2023-06-22T14:32:23;9.20;;;4.45;;
12480;SDS011;6305;48.398;11.762;2023-06-22T14:34:51;10.18;;;5.13;;
12480;SDS011;6305;48.398;11.762;2023-06-22T14:37:19;12.60;;;4.35;;
12480;SDS011;6305;48.398;11.762;2023-06-22T14:39:46;8.85;;;4.88;;
12480;SDS011;6305;48.398;11.762;2023-06-22T14:42:13;12.00;;;4.47;;
12480;SDS011;6305;48.398;11.762;2023-06-22T14:44:41;10.48;;;4.28;;